Nefterudovoz-29m — UIMI — position and weather

sailwx.info

Track history (hours):
 
Tides and Currents Weather Stations Pressure Air Temp Water Temp Dewpoint Dewpoint Depression Visibility Wind Speed Wind Dir Waves Ship Positions

Nefterudovoz-29m

Last reported at 2016-Sep-18 10:33 UTC. Time now 2016-Sep-27 17:15 UTC.
Position N 45°19' E 036°32'.
Warning: this ship's position is 9 days out of date.

Length 119 m; draft 2.4 m.

Type: Tanker. MMSI: 273345300.

Date/timePositionNaut miles runAvg speedWind from/ knotsBaromVisibWave heightAir tempDewpointWater temp
2016-Sep-18 10:33N 45°19' E 036°32'6 5.8
2016-Sep-18 09:33N 45°13' E 036°29'4 0.6
2016-Sep-18 02:33N 45°10' E 036°32'0 0.1
2016-Sep-18 01:30N 45°10' E 036°32'2 1.6
2016-Sep-18 00:23N 45°08' E 036°31'79 7.3
2016-Sep-17 13:33N 44°29' E 034°54'7 7.5
2016-Sep-17 12:33N 44°26' E 034°44'15 7.3
2016-Sep-17 10:33N 44°21' E 034°26'8 7.2
2016-Sep-17 09:30N 44°18' E 034°16'7 7.0
2016-Sep-17 08:33N 44°15' E 034°07'  
2016-Sep-12 03:33N 44°24' E 034°21'16 8.0
2016-Sep-12 01:33N 44°28' E 034°43'86 3.9
2016-Sep-11 03:31N 45°08' E 036°29'6 5.8
2016-Sep-11 02:33N 45°14' E 036°28'6 6.0
2016-Sep-11 01:33N 45°19' E 036°32'7 6.9
2016-Sep-11 00:34N 45°23' E 036°40'7 7.2
2016-Sep-10 23:33N 45°30' E 036°43'  
Track history (hours):
 
Tides and Currents Weather Stations Pressure Air Temp Water Temp Dewpoint Dewpoint Depression Visibility Wind Speed Wind Dir Waves Ship Positions

Nefterudovoz-29m

Last reported at 2016-Sep-18 10:33 UTC. Time now 2016-Sep-27 17:15 UTC.
Position N 45°19' E 036°32'.
Warning: this ship's position is 9 days out of date.

Length 119 m; draft 2.4 m.

Type: Tanker. MMSI: 273345300.

Date/timePositionNaut miles runAvg speedWind from/ knotsBaromVisibWave heightAir tempDewpointWater temp
2016-Sep-18 10:33N 45°19' E 036°32'6 5.8
2016-Sep-18 09:33N 45°13' E 036°29'4 0.6
2016-Sep-18 02:33N 45°10' E 036°32'0 0.1
2016-Sep-18 01:30N 45°10' E 036°32'2 1.6
2016-Sep-18 00:23N 45°08' E 036°31'79 7.3
2016-Sep-17 13:33N 44°29' E 034°54'7 7.5
2016-Sep-17 12:33N 44°26' E 034°44'15 7.3
2016-Sep-17 10:33N 44°21' E 034°26'8 7.2
2016-Sep-17 09:30N 44°18' E 034°16'7 7.0
2016-Sep-17 08:33N 44°15' E 034°07'  
2016-Sep-12 03:33N 44°24' E 034°21'16 8.0
2016-Sep-12 01:33N 44°28' E 034°43'86 3.9
2016-Sep-11 03:31N 45°08' E 036°29'6 5.8
2016-Sep-11 02:33N 45°14' E 036°28'6 6.0
2016-Sep-11 01:33N 45°19' E 036°32'7 6.9
2016-Sep-11 00:34N 45°23' E 036°40'7 7.2
2016-Sep-10 23:33N 45°30' E 036°43'  

Dump ship's entire track history